createdAt,value
2023-05-14T00:02:20.411Z,16.65
2023-05-14T00:04:50.400Z,27.83
2023-05-14T00:07:20.688Z,30.10
2023-05-14T00:09:50.536Z,31.58
2023-05-14T00:12:20.873Z,35.33
2023-05-14T00:14:50.575Z,47.42
2023-05-14T00:17:21.258Z,43.88
2023-05-14T00:19:51.461Z,52.63
2023-05-14T00:22:21.790Z,30.15
2023-05-14T00:24:51.789Z,24.45
2023-05-14T00:27:22.142Z,23.98
2023-05-14T00:29:52.011Z,22.55
2023-05-14T00:32:22.514Z,23.55
2023-05-14T00:34:52.402Z,23.50
2023-05-14T00:37:22.806Z,17.77
2023-05-14T00:39:52.690Z,14.88
2023-05-14T00:42:23.002Z,13.32
2023-05-14T00:44:52.922Z,12.95
2023-05-14T00:47:23.624Z,15.75
2023-05-14T00:49:53.669Z,15.10
2023-05-14T00:52:24.201Z,16.63
2023-05-14T00:54:54.207Z,17.73
2023-05-14T00:57:24.578Z,17.15
2023-05-14T00:59:55.104Z,15.15
2023-05-14T01:02:25.700Z,18.92
2023-05-14T01:04:56.202Z,22.67
2023-05-14T01:07:48.514Z,24.63
2023-05-14T01:10:40.407Z,20.15
2023-05-14T01:13:28.260Z,17.58
2023-05-14T01:16:01.492Z,16.23
2023-05-14T01:18:34.875Z,15.68
2023-05-14T01:21:05.022Z,18.83
2023-05-14T01:23:35.337Z,19.75
2023-05-14T01:26:06.174Z,22.67
2023-05-14T01:28:39.153Z,27.90
2023-05-14T01:31:16.543Z,20.10
2023-05-14T01:33:49.306Z,23.17
2023-05-14T01:36:19.659Z,18.63
2023-05-14T01:38:52.314Z,18.13
2023-05-14T01:41:23.825Z,18.20
2023-05-14T01:43:54.517Z,18.67
2023-05-14T01:46:26.240Z,18.35
2023-05-14T01:48:56.687Z,18.50
2023-05-14T01:51:27.299Z,18.75
2023-05-14T01:53:57.658Z,19.42
2023-05-14T01:56:28.175Z,18.13
2023-05-14T01:58:58.646Z,15.32
2023-05-14T02:01:28.579Z,14.32
2023-05-14T02:03:59.051Z,15.65
2023-05-14T02:06:29.141Z,16.88
2023-05-14T02:08:59.524Z,18.52
2023-05-14T02:11:29.900Z,19.45
2023-05-14T02:14:00.272Z,18.05
2023-05-14T02:16:30.079Z,17.27
2023-05-14T02:19:00.736Z,20.40
2023-05-14T02:21:30.652Z,18.73
2023-05-14T02:24:01.070Z,22.38
2023-05-14T02:26:31.043Z,23.88
2023-05-14T02:29:01.779Z,28.17
2023-05-14T02:31:32.130Z,36.60
2023-05-14T02:34:07.889Z,42.20
2023-05-14T02:36:37.844Z,41.75
2023-05-14T02:39:08.280Z,41.47
2023-05-14T02:41:38.161Z,32.47
2023-05-14T02:44:08.463Z,30.13
2023-05-14T02:46:38.418Z,29.67
2023-05-14T02:49:08.850Z,27.75
2023-05-14T02:51:39.791Z,30.63
2023-05-14T02:54:10.116Z,34.38
2023-05-14T02:56:40.065Z,31.77
2023-05-14T02:59:10.632Z,29.83
2023-05-14T03:01:41.165Z,25.42
2023-05-14T03:04:12.208Z,21.35
2023-05-14T03:06:42.209Z,23.10
2023-05-14T03:09:12.789Z,30.42
2023-05-14T03:11:42.743Z,29.10
2023-05-14T03:14:13.103Z,28.05
2023-05-14T03:16:43.356Z,24.88
2023-05-14T03:19:14.741Z,23.83
2023-05-14T03:21:44.803Z,20.92
2023-05-14T03:24:15.134Z,21.15
2023-05-14T03:26:46.966Z,20.05
2023-05-14T03:29:19.180Z,21.88
2023-05-14T03:31:49.164Z,24.02
2023-05-14T03:34:19.565Z,24.40
2023-05-14T03:36:49.284Z,26.30
2023-05-14T03:39:22.467Z,26.73
2023-05-14T03:41:52.559Z,25.52
2023-05-14T03:44:23.054Z,23.92
2023-05-14T03:46:52.938Z,20.67
2023-05-14T03:49:23.404Z,23.45
2023-05-14T03:51:53.307Z,16.98
2023-05-14T03:54:23.658Z,16.92
2023-05-14T03:56:53.355Z,25.73
2023-05-14T03:59:23.700Z,25.17
2023-05-14T04:01:53.399Z,25.55
2023-05-14T04:04:23.737Z,29.27
2023-05-14T04:06:53.533Z,34.53
2023-05-14T04:09:24.544Z,32.15
2023-05-14T04:11:54.458Z,24.33
2023-05-14T04:14:24.909Z,27.85
2023-05-14T04:16:55.216Z,16.60
2023-05-14T04:19:25.684Z,14.32
2023-05-14T04:21:55.567Z,15.52
2023-05-14T04:24:25.325Z,16.50
2023-05-14T04:26:56.036Z,22.08
2023-05-14T04:29:26.838Z,23.08
2023-05-14T04:31:57.248Z,23.17
2023-05-14T04:34:27.526Z,20.88
2023-05-14T04:36:58.099Z,18.13
2023-05-14T04:39:28.051Z,16.73
2023-05-14T04:41:58.447Z,16.35
2023-05-14T04:44:28.572Z,18.17
2023-05-14T04:46:58.871Z,16.23
2023-05-14T04:49:29.004Z,16.75
2023-05-14T04:51:59.605Z,15.57
2023-05-14T04:54:29.780Z,15.20
2023-05-14T04:57:04.269Z,13.05
2023-05-14T04:59:34.345Z,14.75
2023-05-14T05:02:04.802Z,16.08
2023-05-14T05:04:34.698Z,15.43
2023-05-14T05:07:05.004Z,13.57
2023-05-14T05:09:35.047Z,16.85
2023-05-14T05:12:05.600Z,19.00
2023-05-14T05:14:35.707Z,18.58
2023-05-14T05:17:06.275Z,20.17
2023-05-14T05:19:43.818Z,22.42
2023-05-14T05:22:15.020Z,22.98
2023-05-14T05:24:45.280Z,19.58
2023-05-14T05:27:15.789Z,18.35
2023-05-14T05:29:48.661Z,21.00
2023-05-14T05:32:19.030Z,28.23
2023-05-14T05:34:49.119Z,21.60
2023-05-14T05:37:19.477Z,22.20
2023-05-14T05:39:49.673Z,17.20
2023-05-14T05:42:19.985Z,16.50
2023-05-14T05:44:50.107Z,20.98
2023-05-14T05:47:20.413Z,22.58
2023-05-14T05:49:50.527Z,19.38
2023-05-14T05:52:20.803Z,22.58
2023-05-14T05:54:50.880Z,17.05
2023-05-14T05:57:21.185Z,12.98
2023-05-14T05:59:51.296Z,10.90
2023-05-14T06:02:22.056Z,12.40
2023-05-14T06:04:52.276Z,10.98
2023-05-14T06:07:22.572Z,12.15
2023-05-14T06:09:52.654Z,12.00
2023-05-14T06:12:23.047Z,15.48
2023-05-14T06:14:53.125Z,17.33
2023-05-14T06:17:23.915Z,11.15
2023-05-14T06:19:54.632Z,11.80
2023-05-14T06:22:24.902Z,12.88
2023-05-14T06:24:55.031Z,15.30
2023-05-14T06:27:25.302Z,15.20
2023-05-14T06:29:55.356Z,15.43
2023-05-14T06:32:25.679Z,15.43
2023-05-14T06:34:56.255Z,16.58
2023-05-14T06:37:26.656Z,18.88
2023-05-14T06:39:57.857Z,16.88
2023-05-14T06:42:28.556Z,15.35
2023-05-14T06:44:58.518Z,15.77
2023-05-14T06:47:28.795Z,16.27
2023-05-14T06:49:59.814Z,14.68
2023-05-14T06:52:30.230Z,15.73
2023-05-14T06:55:00.101Z,18.77
2023-05-14T06:57:30.376Z,16.42
2023-05-14T07:00:02.777Z,17.67
2023-05-14T07:02:33.833Z,16.42
2023-05-14T07:05:04.259Z,17.15
2023-05-14T07:07:34.592Z,17.02
2023-05-14T07:10:05.025Z,16.77
2023-05-14T07:12:35.339Z,17.13
2023-05-14T07:15:05.484Z,15.85
2023-05-14T07:17:35.850Z,15.77
2023-05-14T07:20:06.256Z,14.32
2023-05-14T07:22:36.798Z,15.88
2023-05-14T07:25:07.474Z,17.90
2023-05-14T07:27:38.281Z,12.95
2023-05-14T07:30:10.062Z,20.02
2023-05-14T07:32:40.552Z,15.60
2023-05-14T07:35:10.991Z,15.18
2023-05-14T07:37:41.625Z,18.58
2023-05-14T07:40:11.819Z,18.85
2023-05-14T07:42:42.146Z,21.88
2023-05-14T07:45:12.371Z,20.90
2023-05-14T07:47:42.863Z,22.88
2023-05-14T07:50:13.765Z,20.08
2023-05-14T07:52:44.150Z,20.33
2023-05-14T07:55:14.439Z,25.67
2023-05-14T07:57:44.769Z,23.17
2023-05-14T08:00:15.416Z,18.80
2023-05-14T08:02:46.409Z,19.15
2023-05-14T08:05:17.052Z,17.35
2023-05-14T08:07:47.355Z,19.88
2023-05-14T08:10:17.337Z,19.98
2023-05-14T08:12:47.664Z,21.38
2023-05-14T08:15:17.630Z,22.08
2023-05-14T08:17:48.110Z,21.35
2023-05-14T08:20:18.194Z,21.52
2023-05-14T08:22:48.486Z,22.55
2023-05-14T08:25:18.430Z,21.70
2023-05-14T08:27:48.809Z,37.83
2023-05-14T08:30:19.259Z,30.75
2023-05-14T08:32:49.616Z,29.77
2023-05-14T08:35:20.223Z,24.03
2023-05-14T08:37:51.355Z,27.65
2023-05-14T08:40:21.650Z,24.67
2023-05-14T08:42:53.947Z,13.88
2023-05-14T08:45:30.509Z,22.70
2023-05-14T08:48:02.516Z,15.60
2023-05-14T08:50:33.202Z,12.57
2023-05-14T08:53:03.507Z,16.42
2023-05-14T08:55:34.848Z,17.25
2023-05-14T08:58:05.318Z,26.75
2023-05-14T09:00:35.539Z,20.98
2023-05-14T09:03:08.265Z,28.23
2023-05-14T09:05:38.559Z,24.38
2023-05-14T09:08:09.061Z,16.10
2023-05-14T09:10:38.975Z,20.90
2023-05-14T09:13:11.202Z,18.23
2023-05-14T09:15:42.505Z,18.65
2023-05-14T09:18:12.801Z,16.48
2023-05-14T09:20:43.303Z,16.83
2023-05-14T09:23:13.667Z,16.33
2023-05-14T09:25:44.410Z,15.55
2023-05-14T09:28:18.445Z,15.65
2023-05-14T09:30:54.442Z,14.25
2023-05-14T09:33:29.538Z,15.05
2023-05-14T09:36:01.949Z,13.65
2023-05-14T09:38:33.123Z,14.07
2023-05-14T09:41:03.711Z,12.70
2023-05-14T09:43:33.417Z,12.18
2023-05-14T09:46:03.814Z,11.85
2023-05-14T09:48:33.732Z,17.17
2023-05-14T09:51:04.879Z,24.45
2023-05-14T09:53:36.689Z,21.50
2023-05-14T09:56:07.322Z,22.52
2023-05-14T09:58:37.360Z,24.10
2023-05-14T10:01:08.444Z,20.25
2023-05-14T10:03:38.870Z,13.93
2023-05-14T10:06:11.686Z,13.60
2023-05-14T10:08:45.205Z,19.00
2023-05-14T10:11:22.193Z,25.35
2023-05-14T10:14:02.225Z,17.23
2023-05-14T10:16:39.401Z,14.27
2023-05-14T10:19:13.741Z,17.70
2023-05-14T10:21:47.335Z,17.40
2023-05-14T10:24:17.685Z,18.65
2023-05-14T10:26:48.361Z,18.10
2023-05-14T10:29:18.747Z,18.88
2023-05-14T10:31:56.814Z,14.00
2023-05-14T10:34:33.557Z,14.18
2023-05-14T10:37:15.395Z,15.52
2023-05-14T10:40:03.349Z,15.88
2023-05-14T10:42:44.613Z,12.55
2023-05-14T10:45:18.736Z,12.13
2023-05-14T10:47:49.919Z,12.30
2023-05-14T10:50:20.692Z,11.20
2023-05-14T10:52:51.197Z,9.57
2023-05-14T10:55:21.096Z,9.10
2023-05-14T10:57:51.683Z,7.88
2023-05-14T11:00:21.946Z,7.57
2023-05-14T11:02:58.758Z,6.82
2023-05-14T11:05:28.914Z,7.97
2023-05-14T11:07:59.802Z,7.43
2023-05-14T11:10:31.236Z,6.78
2023-05-14T11:13:01.300Z,6.15
2023-05-14T11:15:32.551Z,7.05
2023-05-14T11:18:02.721Z,7.30
2023-05-14T11:20:33.915Z,8.23
2023-05-14T11:23:04.701Z,8.82
2023-05-14T11:25:34.986Z,8.23
2023-05-14T11:28:05.001Z,8.30
2023-05-14T11:30:36.425Z,7.70
2023-05-14T11:33:06.553Z,9.05
2023-05-14T11:35:38.097Z,8.23
2023-05-14T11:38:09.302Z,11.20
2023-05-14T11:40:39.688Z,10.90
2023-05-14T11:43:10.087Z,13.18
2023-05-14T11:45:40.523Z,9.77
2023-05-14T11:48:16.933Z,12.38
2023-05-14T11:50:52.383Z,9.93
2023-05-14T11:53:27.829Z,8.98
2023-05-14T11:56:01.483Z,6.45
2023-05-14T11:58:37.538Z,7.95
2023-05-14T12:01:07.921Z,7.57
2023-05-14T12:03:37.937Z,8.07
2023-05-14T12:06:09.352Z,6.35
2023-05-14T12:08:39.327Z,7.57
2023-05-14T12:11:10.849Z,8.57
2023-05-14T12:13:41.922Z,10.27
2023-05-14T12:16:12.364Z,12.18
2023-05-14T12:18:42.462Z,12.23
2023-05-14T12:21:13.180Z,12.50
2023-05-14T12:23:43.360Z,13.00
2023-05-14T12:26:14.683Z,10.48
2023-05-14T12:28:44.600Z,10.93
2023-05-14T12:31:16.951Z,10.20
2023-05-14T12:33:47.067Z,10.05
2023-05-14T12:36:21.775Z,8.80
2023-05-14T12:38:52.846Z,8.80
2023-05-14T12:41:23.333Z,9.50
2023-05-14T12:43:53.329Z,8.15
2023-05-14T12:46:24.264Z,7.22
2023-05-14T12:48:54.789Z,6.88
2023-05-14T12:51:25.459Z,6.30
2023-05-14T12:53:55.479Z,5.75
2023-05-14T12:56:29.369Z,5.72
2023-05-14T12:58:59.370Z,6.25
2023-05-14T13:01:29.714Z,6.10
2023-05-14T13:04:00.854Z,6.15
2023-05-14T13:06:32.801Z,5.95
2023-05-14T13:09:03.625Z,5.68
2023-05-14T13:11:34.167Z,6.30
2023-05-14T13:14:05.049Z,6.00
2023-05-14T13:16:35.467Z,6.13
2023-05-14T13:19:05.522Z,6.70
2023-05-14T13:21:35.844Z,6.07
2023-05-14T13:24:05.999Z,7.28
2023-05-14T13:26:36.499Z,6.10
2023-05-14T13:29:06.527Z,6.30
2023-05-14T13:31:37.550Z,6.57
2023-05-14T13:34:09.183Z,5.93
2023-05-14T13:36:40.832Z,6.18
2023-05-14T13:39:14.297Z,6.15
2023-05-14T13:41:44.994Z,6.28
2023-05-14T13:44:14.905Z,6.95
2023-05-14T13:46:45.267Z,8.20
2023-05-14T13:49:15.220Z,8.23
2023-05-14T13:51:45.914Z,8.68
2023-05-14T13:54:15.902Z,8.93
2023-05-14T13:56:46.197Z,7.72
2023-05-14T13:59:16.408Z,7.50
2023-05-14T14:01:46.888Z,7.32
2023-05-14T14:04:17.668Z,7.38
2023-05-14T14:06:48.088Z,6.45
2023-05-14T14:09:18.183Z,6.93
2023-05-14T14:11:49.045Z,7.30
2023-05-14T14:14:19.562Z,7.22
2023-05-14T14:16:49.896Z,6.50
2023-05-14T14:19:20.310Z,6.18
2023-05-14T14:24:25.636Z,4.80
2023-05-14T14:26:55.979Z,4.93
2023-05-14T14:29:25.926Z,5.13
2023-05-14T14:31:56.341Z,5.00
2023-05-14T14:34:26.709Z,5.45
2023-05-14T14:36:57.007Z,5.47
2023-05-14T14:39:27.656Z,5.15
2023-05-14T14:41:57.944Z,5.35
2023-05-14T14:44:27.946Z,5.70
2023-05-14T14:46:58.244Z,6.05
2023-05-14T14:49:29.707Z,5.05
2023-05-14T14:52:00.320Z,5.40
2023-05-14T14:54:30.282Z,5.50
2023-05-14T14:57:00.592Z,4.15
2023-05-14T14:59:30.756Z,3.40
2023-05-14T15:02:01.153Z,4.30
2023-05-14T15:04:34.461Z,3.85
2023-05-14T15:07:04.905Z,3.75
2023-05-14T15:09:34.832Z,3.72
2023-05-14T15:12:05.258Z,4.63
2023-05-14T15:14:35.255Z,3.90
2023-05-14T15:17:05.803Z,3.33
2023-05-14T15:19:35.816Z,3.50
2023-05-14T15:22:06.551Z,3.88
2023-05-14T15:24:36.511Z,3.20
2023-05-14T15:27:07.022Z,4.25
2023-05-14T15:29:37.004Z,5.63
2023-05-14T15:32:08.030Z,4.88
2023-05-14T15:34:38.106Z,4.72
2023-05-14T15:37:08.604Z,5.05
2023-05-14T15:39:38.550Z,5.70
2023-05-14T15:42:09.015Z,5.15
2023-05-14T15:44:39.187Z,4.40
2023-05-14T15:47:09.641Z,5.85
2023-05-14T15:49:39.714Z,5.43
2023-05-14T15:52:10.078Z,4.90
2023-05-14T15:54:40.003Z,5.55
2023-05-14T15:57:10.291Z,4.97
2023-05-14T15:59:40.644Z,5.22
2023-05-14T16:02:11.080Z,5.60
2023-05-14T16:04:41.047Z,5.07
2023-05-14T16:07:12.025Z,3.90
2023-05-14T16:09:41.978Z,3.80
2023-05-14T16:12:13.476Z,3.83
2023-05-14T16:14:43.468Z,5.45
2023-05-14T16:17:13.835Z,4.88
2023-05-14T16:19:44.064Z,4.50
2023-05-14T16:22:14.406Z,5.18
2023-05-14T16:24:45.924Z,5.60
2023-05-14T16:29:46.114Z,4.30
2023-05-14T16:32:17.196Z,4.53
2023-05-14T16:34:50.869Z,4.03
2023-05-14T16:37:21.759Z,4.30
2023-05-14T16:39:51.788Z,3.65
2023-05-14T16:42:22.349Z,4.00
2023-05-14T16:44:52.400Z,4.35
2023-05-14T16:47:22.655Z,3.72
2023-05-14T16:49:52.517Z,3.72
2023-05-14T16:52:22.829Z,3.63
2023-05-14T16:54:52.789Z,3.45
2023-05-14T16:57:24.949Z,3.53
2023-05-14T16:59:55.189Z,3.55
2023-05-14T17:02:25.506Z,3.05
2023-05-14T17:04:56.498Z,3.78
2023-05-14T17:07:27.064Z,3.28
2023-05-14T17:09:57.035Z,4.00
2023-05-14T17:12:27.841Z,3.65
2023-05-14T17:14:57.719Z,3.90
2023-05-14T17:17:27.983Z,3.20
2023-05-14T17:19:58.129Z,4.05
2023-05-14T17:22:28.458Z,3.45
2023-05-14T17:24:58.431Z,3.40
2023-05-14T17:27:30.356Z,3.50
2023-05-14T17:30:01.432Z,3.65
2023-05-14T17:32:32.879Z,3.40
2023-05-14T17:35:02.919Z,3.40
2023-05-14T17:37:33.316Z,3.42
2023-05-14T17:40:03.253Z,3.30
2023-05-14T17:42:33.558Z,3.05
2023-05-14T17:45:03.557Z,3.53
2023-05-14T17:47:33.824Z,3.78
2023-05-14T17:50:03.790Z,3.55
2023-05-14T17:52:34.076Z,3.47
2023-05-14T17:55:04.021Z,3.50
2023-05-14T17:57:34.384Z,3.20
2023-05-14T18:00:05.976Z,3.65
2023-05-14T18:02:40.832Z,3.13
2023-05-14T18:05:11.080Z,3.40
2023-05-14T18:07:42.223Z,3.17
2023-05-14T18:10:12.321Z,2.83
2023-05-14T18:12:42.812Z,3.15
2023-05-14T18:15:12.951Z,3.50
2023-05-14T18:17:43.417Z,2.80
2023-05-14T18:20:13.907Z,3.20
2023-05-14T18:22:44.218Z,2.97
2023-05-14T18:25:14.824Z,2.80
2023-05-14T18:27:48.163Z,3.13
2023-05-14T18:30:18.139Z,3.05
2023-05-14T18:32:47.934Z,2.90
2023-05-14T18:35:18.248Z,2.40
2023-05-14T18:37:48.744Z,2.65
2023-05-14T18:40:19.066Z,2.80
2023-05-14T18:42:49.657Z,2.95
2023-05-14T18:45:19.683Z,2.97
2023-05-14T18:47:50.069Z,2.83
2023-05-14T18:50:20.074Z,2.65
2023-05-14T18:52:50.393Z,2.65
2023-05-14T18:55:20.305Z,3.17
2023-05-14T18:57:50.897Z,2.58
2023-05-14T19:00:21.063Z,3.25
2023-05-14T19:02:51.548Z,3.05
2023-05-14T19:05:22.241Z,3.25
2023-05-14T19:07:52.859Z,2.97
2023-05-14T19:10:22.822Z,3.13
2023-05-14T19:12:53.184Z,2.83
2023-05-14T19:15:23.254Z,3.22
2023-05-14T19:17:55.104Z,3.83
2023-05-14T19:20:25.063Z,3.35
2023-05-14T19:22:55.393Z,3.10
2023-05-14T19:25:28.514Z,3.67
2023-05-14T19:28:02.575Z,3.67
2023-05-14T19:30:33.025Z,3.58
2023-05-14T19:33:04.446Z,4.75
2023-05-14T19:35:36.119Z,3.83
2023-05-14T19:38:06.589Z,3.38
2023-05-14T19:40:36.503Z,3.63
2023-05-14T19:43:08.978Z,3.33
2023-05-14T19:45:40.292Z,3.70
2023-05-14T19:48:10.879Z,3.35
2023-05-14T19:50:41.078Z,3.38
2023-05-14T19:53:11.627Z,3.95
2023-05-14T19:55:41.605Z,3.75
2023-05-14T19:58:12.505Z,4.07
2023-05-14T20:00:43.195Z,3.33
2023-05-14T20:03:14.527Z,3.83
2023-05-14T20:05:50.110Z,3.72
2023-05-14T20:08:21.831Z,3.90
2023-05-14T20:10:52.262Z,5.10
2023-05-14T20:13:24.482Z,5.78
2023-05-14T20:15:56.178Z,6.55
2023-05-14T20:18:27.184Z,5.65
2023-05-14T20:20:57.218Z,6.85
2023-05-14T20:23:27.585Z,5.80
2023-05-14T20:25:57.980Z,5.32
2023-05-14T20:28:28.309Z,4.85
2023-05-14T20:31:00.044Z,4.35
2023-05-14T20:33:30.587Z,4.22
2023-05-14T20:36:00.454Z,4.10
2023-05-14T20:38:32.335Z,4.25
2023-05-14T20:41:02.264Z,4.40
2023-05-14T20:43:32.723Z,4.20
2023-05-14T20:46:02.758Z,4.30
2023-05-14T20:48:33.082Z,4.68
2023-05-14T20:51:05.880Z,4.15
2023-05-14T20:53:36.575Z,4.47
2023-05-14T20:56:07.782Z,3.80
2023-05-14T20:58:38.146Z,4.57
2023-05-14T21:01:09.187Z,4.13
2023-05-14T21:03:39.660Z,4.10
2023-05-14T21:06:09.716Z,4.68
2023-05-14T21:08:41.440Z,4.05
2023-05-14T21:13:41.902Z,3.63
2023-05-14T21:16:13.830Z,3.97
2023-05-14T21:18:43.839Z,3.50
2023-05-14T21:21:14.217Z,3.45
2023-05-14T21:23:44.184Z,3.33
2023-05-14T21:26:14.583Z,3.63
2023-05-14T21:28:44.315Z,3.50
2023-05-14T21:31:14.666Z,4.32
2023-05-14T21:33:44.425Z,4.97
2023-05-14T21:36:14.881Z,5.25
2023-05-14T21:38:45.299Z,6.90
2023-05-14T21:41:15.709Z,5.28
2023-05-14T21:43:46.294Z,4.20
2023-05-14T21:46:17.432Z,16.13
2023-05-14T21:48:47.454Z,7.65
2023-05-14T21:51:17.877Z,6.20
2023-05-14T21:53:49.449Z,11.10
2023-05-14T21:56:19.880Z,11.70
2023-05-14T21:58:49.778Z,6.70
2023-05-14T22:01:19.578Z,6.18
2023-05-14T22:03:50.086Z,6.50
2023-05-14T22:06:20.106Z,6.25
2023-05-14T22:08:50.489Z,5.80
2023-05-14T22:11:20.462Z,14.80
2023-05-14T22:13:50.813Z,20.77
2023-05-14T22:16:20.663Z,20.48
2023-05-14T22:18:51.008Z,14.77
2023-05-14T22:21:21.060Z,6.85
2023-05-14T22:23:51.491Z,7.60
2023-05-14T22:26:22.992Z,5.95
2023-05-14T22:28:53.707Z,5.75
2023-05-14T22:31:23.704Z,4.55
2023-05-14T22:33:54.751Z,5.28
2023-05-14T22:36:25.576Z,5.00
2023-05-14T22:38:56.075Z,17.38
2023-05-14T22:41:26.057Z,9.18
2023-05-14T22:43:56.506Z,9.63
2023-05-14T22:46:26.563Z,12.13
2023-05-14T22:48:56.915Z,11.18
2023-05-14T22:51:27.167Z,8.43
2023-05-14T22:53:57.570Z,9.13
2023-05-14T22:56:27.479Z,9.57
2023-05-14T22:58:58.317Z,9.85
2023-05-14T23:01:29.452Z,7.13
2023-05-14T23:03:59.849Z,7.80
2023-05-14T23:06:31.392Z,12.05
2023-05-14T23:09:01.746Z,9.75
2023-05-14T23:11:31.758Z,8.88
2023-05-14T23:14:02.369Z,6.47
2023-05-14T23:16:33.020Z,5.55
2023-05-14T23:19:03.720Z,5.57
2023-05-14T23:21:34.152Z,5.90
2023-05-14T23:24:04.601Z,5.65
2023-05-14T23:26:34.676Z,11.63
2023-05-14T23:29:05.066Z,19.13
2023-05-14T23:31:35.082Z,12.32
2023-05-14T23:34:05.470Z,8.82
2023-05-14T23:36:35.989Z,12.15
2023-05-14T23:39:06.868Z,11.55
2023-05-14T23:41:36.883Z,9.55
2023-05-14T23:44:08.387Z,9.75
2023-05-14T23:46:38.436Z,9.25
2023-05-14T23:49:08.832Z,8.30
2023-05-14T23:51:38.936Z,9.70
2023-05-14T23:54:09.226Z,10.52
2023-05-14T23:56:39.183Z,10.88
2023-05-14T23:59:09.120Z,9.93
